createdAt,value
2022-09-05T00:01:13.769Z,99.90
2022-09-05T00:04:24.334Z,99.90
2022-09-05T00:07:10.623Z,99.90
2022-09-05T00:10:37.216Z,99.90
2022-09-05T00:13:17.504Z,99.90
2022-09-05T00:16:13.833Z,99.90
2022-09-05T00:24:24.708Z,99.90
2022-09-05T00:24:37.912Z,99.90
2022-09-05T00:28:28.545Z,99.90
2022-09-05T00:31:55.805Z,99.90
2022-09-05T00:35:15.183Z,99.90
2022-09-05T00:37:50.127Z,99.90
2022-09-05T00:40:42.341Z,99.90
2022-09-05T00:43:39.525Z,99.90
2022-09-05T00:46:13.608Z,99.90
2022-09-05T00:48:57.902Z,99.90
2022-09-05T00:51:57.926Z,99.90
2022-09-05T00:54:45.964Z,99.90
2022-09-05T00:57:49.258Z,99.90
2022-09-05T01:00:23.958Z,99.90
2022-09-05T01:03:18.351Z,99.90
2022-09-05T01:06:16.415Z,99.90
2022-09-05T01:09:19.070Z,99.90
2022-09-05T01:12:25.681Z,99.90
2022-09-05T01:15:18.584Z,99.90
2022-09-05T01:18:11.168Z,99.90
2022-09-05T01:21:02.539Z,99.90
2022-09-05T01:23:51.459Z,99.90
2022-09-05T01:26:44.487Z,99.90
2022-09-05T01:29:43.185Z,99.90
2022-09-05T01:32:40.496Z,99.90
2022-09-05T01:35:55.006Z,99.90
2022-09-05T01:39:13.220Z,99.90
2022-09-05T01:42:04.532Z,99.90
2022-09-05T01:45:23.109Z,99.90
2022-09-05T01:48:06.170Z,99.90
2022-09-05T01:51:09.913Z,99.90
2022-09-05T01:54:36.015Z,99.90
2022-09-05T01:57:26.197Z,99.90
2022-09-05T02:00:10.150Z,99.90
2022-09-05T02:02:55.653Z,99.90
2022-09-05T02:05:49.116Z,99.90
2022-09-05T02:08:48.540Z,99.90
2022-09-05T02:11:37.302Z,99.90
2022-09-05T02:14:34.020Z,99.90
2022-09-05T02:17:50.140Z,99.90
2022-09-05T02:20:42.839Z,99.90
2022-09-05T02:23:40.806Z,99.90
2022-09-05T02:26:26.045Z,99.90
2022-09-05T02:29:01.018Z,99.90
2022-09-05T02:31:47.882Z,99.90
2022-09-05T02:34:57.178Z,99.90
2022-09-05T02:41:29.058Z,99.90
2022-09-05T02:45:12.504Z,99.90
2022-09-05T02:45:14.650Z,99.90
2022-09-05T02:47:25.463Z,99.90
2022-09-05T02:53:30.130Z,99.90
2022-09-05T02:57:28.164Z,99.90
2022-09-05T02:57:35.085Z,99.90
2022-09-05T02:59:35.851Z,99.90
2022-09-05T03:02:25.556Z,99.90
2022-09-05T03:05:07.579Z,99.90
2022-09-05T03:07:48.895Z,99.90
2022-09-05T03:10:39.673Z,99.90
2022-09-05T03:13:30.422Z,99.90
2022-09-05T03:16:21.227Z,99.90
2022-09-05T03:19:35.551Z,99.90
2022-09-05T03:22:28.891Z,99.90
2022-09-05T03:25:31.567Z,99.90
2022-09-05T03:28:03.961Z,99.90
2022-09-05T03:31:00.774Z,99.90
2022-09-05T03:33:54.258Z,99.90
2022-09-05T03:36:53.266Z,99.90
2022-09-05T03:39:49.532Z,99.90
2022-09-05T03:42:30.871Z,99.90
2022-09-05T03:45:36.914Z,99.90
2022-09-05T03:48:28.603Z,99.90
2022-09-05T03:57:04.223Z,99.90
2022-09-05T03:57:20.049Z,99.90
2022-09-05T03:57:41.709Z,99.90
2022-09-05T04:00:22.551Z,99.90
2022-09-05T04:08:18.260Z,99.90
2022-09-05T04:08:19.632Z,99.90
2022-09-05T04:09:48.988Z,99.90
2022-09-05T04:12:21.044Z,99.90
2022-09-05T04:14:55.360Z,99.90
2022-09-05T04:17:46.812Z,99.90
2022-09-05T04:20:40.611Z,99.90
2022-09-05T04:23:57.040Z,99.90
2022-09-05T04:26:52.634Z,99.90
2022-09-05T04:29:57.238Z,99.90
2022-09-05T04:32:29.204Z,99.90
2022-09-05T04:35:11.691Z,99.90
2022-09-05T04:37:48.454Z,99.90
2022-09-05T04:40:32.949Z,99.90
2022-09-05T04:43:42.300Z,99.90
2022-09-05T04:46:19.114Z,99.90
2022-09-05T04:49:32.318Z,99.90
2022-09-05T04:52:44.152Z,99.90
2022-09-05T04:55:52.351Z,99.90
2022-09-05T05:00:27.638Z,99.90
2022-09-05T05:06:02.571Z,99.90
2022-09-05T05:06:18.348Z,99.90
2022-09-05T05:07:39.697Z,99.90
2022-09-05T05:16:00.316Z,99.90
2022-09-05T05:18:06.878Z,99.90
2022-09-05T05:18:15.331Z,99.90
2022-09-05T05:20:42.644Z,99.90
2022-09-05T05:23:19.624Z,99.90
2022-09-05T05:25:55.162Z,99.90
2022-09-05T05:28:42.316Z,99.90
2022-09-05T05:31:45.599Z,99.90
2022-09-05T05:34:32.802Z,99.90
2022-09-05T05:37:21.227Z,99.90
2022-09-05T05:39:59.110Z,99.90
2022-09-05T05:42:31.775Z,99.90
2022-09-05T05:45:04.776Z,99.90
2022-09-05T05:47:43.639Z,99.90
2022-09-05T05:50:37.847Z,99.90
2022-09-05T05:53:45.430Z,99.90
2022-09-05T05:56:37.392Z,99.90
2022-09-05T05:59:27.249Z,99.90
2022-09-05T06:02:01.761Z,99.90
2022-09-05T06:05:20.097Z,99.90
2022-09-05T06:11:20.493Z,99.90
2022-09-05T06:14:56.698Z,99.90
2022-09-05T06:15:05.919Z,99.90
2022-09-05T06:17:37.919Z,99.90
2022-09-05T06:22:04.661Z,99.90
2022-09-05T06:23:10.653Z,99.90
2022-09-05T06:26:12.958Z,99.90
2022-09-05T06:28:54.068Z,99.90
2022-09-05T06:31:34.784Z,99.90
2022-09-05T06:34:33.232Z,99.90
2022-09-05T06:37:17.165Z,99.90
2022-09-05T06:40:00.331Z,99.90
2022-09-05T06:42:58.032Z,99.90
2022-09-05T06:45:38.501Z,99.90
2022-09-05T06:48:23.836Z,99.90
2022-09-05T06:51:34.355Z,99.60
2022-09-05T06:54:47.150Z,99.90
2022-09-05T06:57:44.649Z,99.90
2022-09-05T07:00:38.962Z,99.90
2022-09-05T07:03:26.642Z,99.90
2022-09-05T07:06:07.533Z,99.90
2022-09-05T07:08:58.044Z,99.30
2022-09-05T07:11:37.748Z,99.00
2022-09-05T07:14:26.808Z,98.80
2022-09-05T07:17:16.644Z,98.60
2022-09-05T07:19:57.883Z,98.30
2022-09-05T07:23:38.268Z,97.80
2022-09-05T07:25:56.067Z,97.90
2022-09-05T07:28:30.541Z,98.20
2022-09-05T07:31:27.511Z,97.60
2022-09-05T07:34:32.402Z,96.90
2022-09-05T07:37:14.843Z,96.70
2022-09-05T07:39:54.146Z,96.20
2022-09-05T07:42:42.271Z,96.10
2022-09-05T07:45:24.130Z,96.00
2022-09-05T07:48:19.266Z,95.80
2022-09-05T07:55:59.267Z,95.60
2022-09-05T07:57:10.788Z,95.90
2022-09-05T08:00:26.220Z,96.40
2022-09-05T08:03:10.514Z,97.40
2022-09-05T08:05:49.643Z,97.50
2022-09-05T08:08:27.884Z,98.40
2022-09-05T08:11:26.259Z,98.60
2022-09-05T08:14:43.968Z,99.20
2022-09-05T08:17:29.835Z,99.40
2022-09-05T08:20:09.483Z,99.20
2022-09-05T08:22:52.466Z,99.70
2022-09-05T08:25:57.638Z,99.70
2022-09-05T08:28:39.413Z,98.90
2022-09-05T08:31:19.666Z,97.70
2022-09-05T08:33:56.217Z,97.10
2022-09-05T08:36:30.865Z,96.40
2022-09-05T08:39:05.799Z,96.20
2022-09-05T08:42:05.845Z,96.20
2022-09-05T08:46:43.996Z,96.60
2022-09-05T08:47:58.566Z,96.30
2022-09-05T08:51:07.071Z,95.80
2022-09-05T08:53:50.838Z,95.90
2022-09-05T08:56:25.845Z,96.30
2022-09-05T08:59:32.181Z,95.80
2022-09-05T09:02:46.394Z,95.80
2022-09-05T09:05:22.524Z,96.00
2022-09-05T09:08:22.268Z,96.50
2022-09-05T09:11:00.852Z,96.80
2022-09-05T09:13:52.537Z,96.10
2022-09-05T09:16:59.623Z,96.20
2022-09-05T09:19:52.305Z,96.10
2022-09-05T09:22:37.983Z,96.90
2022-09-05T09:25:31.825Z,97.10
2022-09-05T09:28:50.571Z,97.50
2022-09-05T09:31:28.717Z,97.80
2022-09-05T09:34:14.099Z,98.20
2022-09-05T09:37:12.201Z,97.40
2022-09-05T09:40:15.841Z,97.60
2022-09-05T09:43:27.958Z,97.90
2022-09-05T09:46:18.323Z,97.90
2022-09-05T09:49:22.614Z,97.60
2022-09-05T09:52:08.069Z,97.40
2022-09-05T09:55:32.493Z,96.90
2022-09-05T09:58:27.006Z,97.40
2022-09-05T10:01:53.403Z,97.00
2022-09-05T10:10:40.437Z,96.10
2022-09-05T10:11:00.721Z,95.60
2022-09-05T10:11:55.231Z,96.50
2022-09-05T10:15:05.232Z,96.50
2022-09-05T10:18:25.582Z,95.20
2022-09-05T10:21:16.347Z,95.20
2022-09-05T10:24:26.781Z,94.90
2022-09-05T10:27:44.509Z,94.60
2022-09-05T10:32:07.538Z,94.10
2022-09-05T10:35:15.176Z,94.10
2022-09-05T10:37:02.692Z,93.60
2022-09-05T10:39:40.215Z,93.30
2022-09-05T10:42:21.465Z,93.40
2022-09-05T10:44:58.006Z,94.00
2022-09-05T10:47:36.965Z,94.90
2022-09-05T10:50:26.180Z,94.60
2022-09-05T10:53:03.961Z,94.70
2022-09-05T10:56:06.255Z,94.50
2022-09-05T11:02:15.820Z,94.10
2022-09-05T11:02:29.253Z,93.70
2022-09-05T11:05:23.089Z,94.40
2022-09-05T11:08:31.958Z,94.30
2022-09-05T11:11:28.739Z,94.20
2022-09-05T11:14:26.980Z,93.80
2022-09-05T11:17:18.785Z,94.20
2022-09-05T11:20:05.288Z,93.40
2022-09-05T11:22:43.156Z,93.10
2022-09-05T11:25:36.985Z,92.80
2022-09-05T11:28:25.865Z,93.10
2022-09-05T11:30:59.935Z,92.90
2022-09-05T11:39:49.019Z,93.60
2022-09-05T11:39:56.164Z,94.00
2022-09-05T11:40:31.711Z,94.00
2022-09-05T11:43:24.040Z,93.90
2022-09-05T11:46:14.731Z,93.80
2022-09-05T11:49:09.947Z,93.30
2022-09-05T11:52:09.742Z,92.70
2022-09-05T11:55:21.177Z,92.80
2022-09-05T11:58:45.349Z,93.10
2022-09-05T12:01:41.788Z,93.20
2022-09-05T12:04:20.523Z,93.20
2022-09-05T12:07:31.906Z,93.30
2022-09-05T12:10:46.838Z,93.70
2022-09-05T12:13:32.017Z,93.30
2022-09-05T12:16:36.527Z,93.20
2022-09-05T12:19:37.508Z,93.10
2022-09-05T12:22:31.295Z,93.10
2022-09-05T12:26:02.872Z,93.30
2022-09-05T12:29:26.088Z,93.40
2022-09-05T12:32:50.314Z,93.20
2022-09-05T12:36:08.055Z,93.00
2022-09-05T12:40:58.170Z,93.10
2022-09-05T12:41:43.408Z,93.40
2022-09-05T12:44:41.270Z,93.40
2022-09-05T12:47:21.275Z,93.60
2022-09-05T12:50:15.283Z,93.90
2022-09-05T12:52:51.840Z,94.00
2022-09-05T12:55:28.672Z,94.10
2022-09-05T13:02:55.635Z,94.20
2022-09-05T13:03:11.102Z,94.30
2022-09-05T13:04:27.095Z,93.90
2022-09-05T13:07:16.229Z,93.60
2022-09-05T13:12:07.445Z,93.30
2022-09-05T13:14:49.344Z,92.80
2022-09-05T13:15:53.324Z,92.70
2022-09-05T13:18:31.151Z,92.60
2022-09-05T13:21:09.608Z,93.00
2022-09-05T13:24:12.129Z,92.80
2022-09-05T13:27:07.205Z,92.30
2022-09-05T13:33:24.038Z,93.00
2022-09-05T13:38:04.297Z,92.80
2022-09-05T13:38:17.349Z,92.30
2022-09-05T13:39:09.826Z,92.40
2022-09-05T13:42:03.643Z,91.80
2022-09-05T13:44:41.239Z,91.60
2022-09-05T13:47:29.538Z,91.20
2022-09-05T13:50:24.891Z,91.40
2022-09-05T13:53:06.446Z,91.00
2022-09-05T13:55:45.867Z,91.30
2022-09-05T13:58:25.273Z,91.30
2022-09-05T14:01:19.901Z,92.00
2022-09-05T14:04:05.616Z,91.50
2022-09-05T14:10:16.036Z,91.00
2022-09-05T14:12:49.767Z,90.60
2022-09-05T14:15:59.919Z,90.70
2022-09-05T14:19:02.424Z,91.50
2022-09-05T14:21:38.786Z,91.70
2022-09-05T14:24:27.961Z,91.20
2022-09-05T14:27:00.463Z,90.60
2022-09-05T14:29:38.994Z,90.10
2022-09-05T14:37:45.497Z,90.00
2022-09-05T14:37:49.519Z,89.90
2022-09-05T14:38:42.976Z,90.00
2022-09-05T14:41:29.921Z,90.30
2022-09-05T14:44:25.644Z,90.80
2022-09-05T14:47:32.312Z,90.90
2022-09-05T14:50:21.178Z,90.20
2022-09-05T14:57:08.168Z,90.20
2022-09-05T15:02:53.945Z,90.70
2022-09-05T15:02:58.247Z,90.40
2022-09-05T15:05:17.623Z,90.50
2022-09-05T15:08:00.144Z,90.20
2022-09-05T15:12:15.153Z,90.10
2022-09-05T15:13:34.642Z,89.70
2022-09-05T15:16:13.292Z,89.30
2022-09-05T15:18:49.364Z,88.90
2022-09-05T15:21:34.584Z,89.10
2022-09-05T15:24:25.621Z,89.30
2022-09-05T15:27:02.632Z,89.80
2022-09-05T15:29:35.617Z,89.50
2022-09-05T15:32:26.437Z,88.70
2022-09-05T15:35:00.311Z,89.30
2022-09-05T15:37:40.997Z,89.20
2022-09-05T15:40:22.101Z,89.10
2022-09-05T15:43:00.664Z,89.60
2022-09-05T15:45:36.192Z,88.90
2022-09-05T15:48:21.464Z,88.50
2022-09-05T15:50:57.072Z,88.60
2022-09-05T15:53:36.469Z,87.30
2022-09-05T15:56:11.379Z,88.70
2022-09-05T15:58:56.546Z,88.60
2022-09-05T16:01:58.261Z,88.30
2022-09-05T16:08:32.774Z,87.90
2022-09-05T16:10:37.859Z,90.00
2022-09-05T16:10:39.843Z,89.70
2022-09-05T16:13:17.356Z,90.00
2022-09-05T16:20:45.374Z,90.50
2022-09-05T16:23:23.939Z,89.50
2022-09-05T16:23:32.902Z,90.10
2022-09-05T16:24:58.221Z,90.10
2022-09-05T16:27:56.813Z,90.20
2022-09-05T16:30:33.972Z,90.40
2022-09-05T16:33:17.823Z,90.50
2022-09-05T16:36:17.528Z,90.50
2022-09-05T16:39:12.990Z,90.90
2022-09-05T16:41:53.517Z,91.00
2022-09-05T16:44:40.412Z,91.90
2022-09-05T16:47:13.077Z,92.00
2022-09-05T16:50:34.792Z,92.30
2022-09-05T16:53:30.684Z,92.20
2022-09-05T16:56:12.087Z,92.10
2022-09-05T16:58:49.010Z,92.50
2022-09-05T17:01:36.512Z,92.40
2022-09-05T17:04:28.325Z,92.30
2022-09-05T17:07:29.419Z,92.70
2022-09-05T17:10:11.304Z,92.60
2022-09-05T17:12:43.492Z,92.60
2022-09-05T17:15:19.994Z,93.00
2022-09-05T17:18:19.282Z,93.50
2022-09-05T17:20:54.689Z,93.40
2022-09-05T17:29:20.232Z,93.90
2022-09-05T17:29:43.099Z,94.20
2022-09-05T17:32:36.011Z,94.80
2022-09-05T17:35:34.025Z,94.90
2022-09-05T17:38:14.737Z,95.10
2022-09-05T17:40:59.386Z,95.40
2022-09-05T17:43:38.605Z,96.10
2022-09-05T17:46:28.613Z,96.50
2022-09-05T17:49:19.630Z,96.70
2022-09-05T17:51:52.438Z,97.20
2022-09-05T17:54:32.094Z,97.30
2022-09-05T17:57:28.459Z,97.40
2022-09-05T18:00:21.396Z,97.60
2022-09-05T18:02:57.331Z,97.70
2022-09-05T18:06:01.334Z,97.90
2022-09-05T18:08:46.969Z,98.10
2022-09-05T18:11:25.315Z,98.20
2022-09-05T18:14:24.536Z,98.30
2022-09-05T18:17:37.289Z,98.60
2022-09-05T18:19:49.487Z,98.80
2022-09-05T18:22:35.885Z,99.10
2022-09-05T18:25:33.179Z,99.20
2022-09-05T18:28:50.349Z,99.30
2022-09-05T18:31:52.082Z,99.20
2022-09-05T18:34:31.845Z,99.50
2022-09-05T18:37:36.741Z,99.60
2022-09-05T18:40:16.595Z,99.90
2022-09-05T18:43:10.359Z,99.90
2022-09-05T18:45:52.528Z,99.90
2022-09-05T18:48:30.828Z,99.90
2022-09-05T18:51:15.213Z,99.90
2022-09-05T18:53:50.164Z,99.90
2022-09-05T18:57:09.747Z,99.90
2022-09-05T18:59:38.287Z,99.90
2022-09-05T19:02:24.982Z,99.90
2022-09-05T19:05:19.152Z,99.90
2022-09-05T19:08:07.389Z,99.90
2022-09-05T19:10:49.136Z,99.90
2022-09-05T19:13:32.095Z,99.90
2022-09-05T19:16:42.119Z,99.90
2022-09-05T19:19:16.385Z,99.90
2022-09-05T19:22:39.590Z,99.90
2022-09-05T19:24:49.043Z,99.90
2022-09-05T19:28:13.910Z,99.90
2022-09-05T19:37:02.959Z,99.90
2022-09-05T19:37:08.543Z,99.90
2022-09-05T19:37:09.431Z,99.90
2022-09-05T19:41:47.902Z,99.90
2022-09-05T19:47:29.535Z,99.90
2022-09-05T19:47:36.579Z,99.90
2022-09-05T19:48:28.514Z,99.90
2022-09-05T19:51:16.830Z,99.90
2022-09-05T19:53:53.966Z,99.90
2022-09-05T19:56:40.633Z,99.90
2022-09-05T19:59:27.656Z,99.90
2022-09-05T20:02:26.464Z,99.90
2022-09-05T20:05:00.588Z,99.90
2022-09-05T20:07:33.564Z,99.90
2022-09-05T20:10:05.910Z,99.90
2022-09-05T20:12:39.330Z,99.90
2022-09-05T20:15:36.336Z,99.90
2022-09-05T20:18:22.714Z,99.90
2022-09-05T20:21:25.783Z,99.90
2022-09-05T20:23:59.888Z,99.90
2022-09-05T20:26:34.405Z,99.90
2022-09-05T20:29:09.211Z,99.90
2022-09-05T20:31:42.102Z,99.90
2022-09-05T20:36:04.136Z,99.90
2022-09-05T20:43:14.457Z,99.90
2022-09-05T20:43:15.201Z,99.90
2022-09-05T20:43:37.029Z,99.90
2022-09-05T20:49:41.534Z,99.90
2022-09-05T20:54:05.691Z,99.90
2022-09-05T20:54:23.438Z,99.90
2022-09-05T20:55:38.374Z,99.90
2022-09-05T20:58:16.520Z,99.90
2022-09-05T21:01:21.617Z,99.90
2022-09-05T21:04:05.364Z,99.90
2022-09-05T21:06:41.441Z,99.90
2022-09-05T21:09:25.410Z,99.90
2022-09-05T21:12:00.140Z,99.90
2022-09-05T21:14:32.102Z,99.90
2022-09-05T21:17:15.469Z,99.90
2022-09-05T21:19:56.245Z,99.90
2022-09-05T21:22:43.611Z,99.90
2022-09-05T21:25:15.676Z,99.90
2022-09-05T21:28:21.545Z,99.90
2022-09-05T21:30:54.698Z,99.90
2022-09-05T21:33:39.585Z,99.90
2022-09-05T21:36:17.364Z,99.90
2022-09-05T21:38:49.420Z,99.90
2022-09-05T21:41:21.379Z,99.90
2022-09-05T21:47:38.804Z,99.90
2022-09-05T21:47:47.404Z,99.90
2022-09-05T21:49:37.455Z,99.90
2022-09-05T21:52:09.953Z,99.90
2022-09-05T21:59:21.049Z,99.90
2022-09-05T21:59:24.478Z,99.90
2022-09-05T22:00:30.248Z,99.90
2022-09-05T22:03:02.221Z,99.90
2022-09-05T22:05:52.270Z,99.90
2022-09-05T22:08:26.266Z,99.90
2022-09-05T22:10:58.255Z,99.90
2022-09-05T22:13:30.249Z,99.90
2022-09-05T22:16:06.290Z,99.90
2022-09-05T22:18:40.902Z,99.90
2022-09-05T22:21:32.594Z,99.90
2022-09-05T22:24:09.820Z,99.90
2022-09-05T22:27:11.444Z,99.90
2022-09-05T22:29:39.964Z,99.90
2022-09-05T22:32:11.904Z,99.90
2022-09-05T22:34:43.879Z,99.90
2022-09-05T22:37:16.871Z,99.90
2022-09-05T22:39:48.893Z,99.90
2022-09-05T22:42:20.847Z,99.90
2022-09-05T22:44:52.900Z,99.90
2022-09-05T22:47:26.895Z,99.90
2022-09-05T22:49:58.736Z,99.90
2022-09-05T22:52:30.683Z,99.90
2022-09-05T22:55:02.646Z,99.90
2022-09-05T22:57:34.489Z,99.90
2022-09-05T23:00:07.547Z,99.90
2022-09-05T23:02:39.565Z,99.90
2022-09-05T23:05:11.567Z,99.90
2022-09-05T23:07:43.389Z,99.90
2022-09-05T23:10:15.376Z,99.90
2022-09-05T23:12:47.369Z,99.90
2022-09-05T23:15:19.269Z,99.90
2022-09-05T23:17:55.186Z,99.90
2022-09-05T23:20:29.813Z,99.90
2022-09-05T23:23:06.683Z,99.90
2022-09-05T23:25:38.563Z,99.90
2022-09-05T23:28:10.797Z,99.90
2022-09-05T23:30:42.767Z,99.90
2022-09-05T23:33:14.703Z,99.90
2022-09-05T23:35:46.725Z,99.90
2022-09-05T23:38:18.547Z,99.90
2022-09-05T23:40:50.373Z,99.90
2022-09-05T23:43:24.259Z,99.90
2022-09-05T23:45:56.250Z,99.90
2022-09-05T23:48:28.569Z,99.90
2022-09-05T23:51:08.625Z,99.90
2022-09-05T23:53:41.063Z,99.90
2022-09-05T23:56:13.002Z,99.90
2022-09-05T23:58:45.655Z,99.90
